sensor_id;sensor_type;location;lat;lon;timestamp;temperature;humidity
54684;DHT22;40582;53.100;6.686;2023-03-03T00:01:26;2.80;99.90
54684;DHT22;40582;53.100;6.686;2023-03-03T00:03:53;2.80;99.90
54684;DHT22;40582;53.100;6.686;2023-03-03T00:06:19;3.30;99.90
54684;DHT22;40582;53.100;6.686;2023-03-03T00:08:45;2.90;99.90
54684;DHT22;40582;53.100;6.686;2023-03-03T00:11:10;3.20;99.90
54684;DHT22;40582;53.100;6.686;2023-03-03T00:13:44;3.20;99.90
54684;DHT22;40582;53.100;6.686;2023-03-03T00:16:15;2.80;99.90
54684;DHT22;40582;53.100;6.686;2023-03-03T00:18:45;3.10;99.90
54684;DHT22;40582;53.100;6.686;2023-03-03T00:23:47;3.40;99.90
54684;DHT22;40582;53.100;6.686;2023-03-03T00:26:30;2.80;99.90
54684;DHT22;40582;53.100;6.686;2023-03-03T00:28:58;2.80;99.90
54684;DHT22;40582;53.100;6.686;2023-03-03T00:31:33;3.20;99.90
54684;DHT22;40582;53.100;6.686;2023-03-03T00:34:26;2.70;99.90
54684;DHT22;40582;53.100;6.686;2023-03-03T00:36:54;2.70;99.90
54684;DHT22;40582;53.100;6.686;2023-03-03T00:39:34;2.70;99.90
54684;DHT22;40582;53.100;6.686;2023-03-03T00:42:01;2.80;99.90
54684;DHT22;40582;53.100;6.686;2023-03-03T00:44:42;2.90;99.90
54684;DHT22;40582;53.100;6.686;2023-03-03T00:50:13;2.70;99.90
54684;DHT22;40582;53.100;6.686;2023-03-03T00:52:43;2.70;99.90
54684;DHT22;40582;53.100;6.686;2023-03-03T00:55:10;2.70;99.90
54684;DHT22;40582;53.100;6.686;2023-03-03T00:57:36;2.70;99.90
54684;DHT22;40582;53.100;6.686;2023-03-03T01:00:03;2.70;99.90
54684;DHT22;40582;53.100;6.686;2023-03-03T01:02:29;2.70;99.90
54684;DHT22;40582;53.100;6.686;2023-03-03T01:04:56;2.70;99.90
54684;DHT22;40582;53.100;6.686;2023-03-03T01:07:23;3.30;99.90
54684;DHT22;40582;53.100;6.686;2023-03-03T01:09:49;2.90;99.90
54684;DHT22;40582;53.100;6.686;2023-03-03T01:12:15;2.70;99.90
54684;DHT22;40582;53.100;6.686;2023-03-03T01:14:41;2.80;99.90
54684;DHT22;40582;53.100;6.686;2023-03-03T01:17:07;2.70;99.90
54684;DHT22;40582;53.100;6.686;2023-03-03T01:19:33;2.80;99.90
54684;DHT22;40582;53.100;6.686;2023-03-03T01:21:59;2.90;99.90
54684;DHT22;40582;53.100;6.686;2023-03-03T01:24:25;2.80;99.90
54684;DHT22;40582;53.100;6.686;2023-03-03T01:26:50;2.90;99.90
54684;DHT22;40582;53.100;6.686;2023-03-03T01:29:16;2.90;99.90
54684;DHT22;40582;53.100;6.686;2023-03-03T01:31:42;2.90;99.90
54684;DHT22;40582;53.100;6.686;2023-03-03T01:34:07;2.90;99.90
54684;DHT22;40582;53.100;6.686;2023-03-03T01:36:33;2.90;99.90
54684;DHT22;40582;53.100;6.686;2023-03-03T01:38:59;2.80;99.90
54684;DHT22;40582;53.100;6.686;2023-03-03T01:41:31;2.90;99.90
54684;DHT22;40582;53.100;6.686;2023-03-03T01:43:59;3.10;99.90
54684;DHT22;40582;53.100;6.686;2023-03-03T01:46:43;3.50;99.90
54684;DHT22;40582;53.100;6.686;2023-03-03T01:49:21;2.90;99.90
54684;DHT22;40582;53.100;6.686;2023-03-03T01:51:53;2.90;99.90
54684;DHT22;40582;53.100;6.686;2023-03-03T01:56:55;2.90;99.90
54684;DHT22;40582;53.100;6.686;2023-03-03T01:59:24;2.90;99.90
54684;DHT22;40582;53.100;6.686;2023-03-03T02:01:51;3.20;99.90
54684;DHT22;40582;53.100;6.686;2023-03-03T02:04:18;3.30;99.90
54684;DHT22;40582;53.100;6.686;2023-03-03T02:06:53;2.90;99.90
54684;DHT22;40582;53.100;6.686;2023-03-03T02:11:50;3.00;99.90
54684;DHT22;40582;53.100;6.686;2023-03-03T02:14:17;2.90;99.90
54684;DHT22;40582;53.100;6.686;2023-03-03T02:16:43;3.00;99.90
54684;DHT22;40582;53.100;6.686;2023-03-03T02:21:59;3.00;99.90
54684;DHT22;40582;53.100;6.686;2023-03-03T02:24:42;3.40;99.90
54684;DHT22;40582;53.100;6.686;2023-03-03T02:27:09;3.00;99.90
54684;DHT22;40582;53.100;6.686;2023-03-03T02:29:35;3.00;99.90
54684;DHT22;40582;53.100;6.686;2023-03-03T02:32:01;3.50;99.90
54684;DHT22;40582;53.100;6.686;2023-03-03T02:34:26;3.40;99.90
54684;DHT22;40582;53.100;6.686;2023-03-03T02:36:52;3.00;99.90
54684;DHT22;40582;53.100;6.686;2023-03-03T02:39:23;3.00;99.90
54684;DHT22;40582;53.100;6.686;2023-03-03T02:42:07;3.00;99.90
54684;DHT22;40582;53.100;6.686;2023-03-03T02:44:34;3.40;99.90
54684;DHT22;40582;53.100;6.686;2023-03-03T02:47:00;3.00;99.90
54684;DHT22;40582;53.100;6.686;2023-03-03T02:49:29;3.00;99.90
54684;DHT22;40582;53.100;6.686;2023-03-03T02:51:56;3.00;99.90
54684;DHT22;40582;53.100;6.686;2023-03-03T02:54:24;3.00;99.90
54684;DHT22;40582;53.100;6.686;2023-03-03T02:56:50;3.40;99.90
54684;DHT22;40582;53.100;6.686;2023-03-03T02:59:16;3.00;99.90
54684;DHT22;40582;53.100;6.686;2023-03-03T03:01:42;3.50;99.90
54684;DHT22;40582;53.100;6.686;2023-03-03T03:04:13;2.90;99.90
54684;DHT22;40582;53.100;6.686;2023-03-03T03:06:40;2.90;99.90
54684;DHT22;40582;53.100;6.686;2023-03-03T03:09:07;2.90;99.90
54684;DHT22;40582;53.100;6.686;2023-03-03T03:11:33;2.90;99.90
54684;DHT22;40582;53.100;6.686;2023-03-03T03:14:03;2.90;99.90
54684;DHT22;40582;53.100;6.686;2023-03-03T03:16:30;2.90;99.90
54684;DHT22;40582;53.100;6.686;2023-03-03T03:18:58;3.00;99.90
54684;DHT22;40582;53.100;6.686;2023-03-03T03:21:24;2.80;99.90
54684;DHT22;40582;53.100;6.686;2023-03-03T03:23:50;2.80;99.90
54684;DHT22;40582;53.100;6.686;2023-03-03T03:26:16;2.90;99.90
54684;DHT22;40582;53.100;6.686;2023-03-03T03:28:41;2.70;99.90
54684;DHT22;40582;53.100;6.686;2023-03-03T03:31:08;3.10;99.90
54684;DHT22;40582;53.100;6.686;2023-03-03T03:33:34;2.70;99.90
54684;DHT22;40582;53.100;6.686;2023-03-03T03:36:01;2.70;99.90
54684;DHT22;40582;53.100;6.686;2023-03-03T03:38:28;2.80;99.90
54684;DHT22;40582;53.100;6.686;2023-03-03T03:40:54;2.70;99.90
54684;DHT22;40582;53.100;6.686;2023-03-03T03:43:20;2.80;99.90
54684;DHT22;40582;53.100;6.686;2023-03-03T03:45:46;2.60;99.90
54684;DHT22;40582;53.100;6.686;2023-03-03T03:48:12;2.60;99.90
54684;DHT22;40582;53.100;6.686;2023-03-03T03:50:38;3.10;99.90
54684;DHT22;40582;53.100;6.686;2023-03-03T03:53:05;2.60;99.90
54684;DHT22;40582;53.100;6.686;2023-03-03T03:55:31;2.50;99.90
54684;DHT22;40582;53.100;6.686;2023-03-03T03:57:57;2.50;99.90
54684;DHT22;40582;53.100;6.686;2023-03-03T04:00:23;2.50;99.90
54684;DHT22;40582;53.100;6.686;2023-03-03T04:02:49;3.00;99.90
54684;DHT22;40582;53.100;6.686;2023-03-03T04:05:15;2.60;99.90
54684;DHT22;40582;53.100;6.686;2023-03-03T04:07:41;2.50;99.90
54684;DHT22;40582;53.100;6.686;2023-03-03T04:10:08;3.00;99.90
54684;DHT22;40582;53.100;6.686;2023-03-03T04:12:34;2.40;99.90
54684;DHT22;40582;53.100;6.686;2023-03-03T04:15:07;2.50;99.90
54684;DHT22;40582;53.100;6.686;2023-03-03T04:17:34;2.50;99.90
54684;DHT22;40582;53.100;6.686;2023-03-03T04:19:59;2.40;99.90
54684;DHT22;40582;53.100;6.686;2023-03-03T04:22:27;2.40;99.90
54684;DHT22;40582;53.100;6.686;2023-03-03T04:24:53;2.40;99.90
54684;DHT22;40582;53.100;6.686;2023-03-03T04:27:18;2.40;99.90
54684;DHT22;40582;53.100;6.686;2023-03-03T04:29:44;2.30;99.90
54684;DHT22;40582;53.100;6.686;2023-03-03T04:32:10;2.30;99.90
54684;DHT22;40582;53.100;6.686;2023-03-03T04:34:36;2.80;99.90
54684;DHT22;40582;53.100;6.686;2023-03-03T04:37:01;2.50;99.90
54684;DHT22;40582;53.100;6.686;2023-03-03T04:39:28;2.50;99.90
54684;DHT22;40582;53.100;6.686;2023-03-03T04:41:53;2.20;99.90
54684;DHT22;40582;53.100;6.686;2023-03-03T04:44:19;2.10;99.90
54684;DHT22;40582;53.100;6.686;2023-03-03T04:46:45;2.40;99.90
54684;DHT22;40582;53.100;6.686;2023-03-03T04:49:10;2.00;99.90
54684;DHT22;40582;53.100;6.686;2023-03-03T04:51:36;1.90;99.90
54684;DHT22;40582;53.100;6.686;2023-03-03T04:54:02;1.90;99.90
54684;DHT22;40582;53.100;6.686;2023-03-03T04:56:30;1.90;99.90
54684;DHT22;40582;53.100;6.686;2023-03-03T04:58:56;1.90;99.90
54684;DHT22;40582;53.100;6.686;2023-03-03T05:01:22;2.00;99.90
54684;DHT22;40582;53.100;6.686;2023-03-03T05:03:48;2.40;99.90
54684;DHT22;40582;53.100;6.686;2023-03-03T05:06:13;2.30;99.90
54684;DHT22;40582;53.100;6.686;2023-03-03T05:08:39;1.70;99.90
54684;DHT22;40582;53.100;6.686;2023-03-03T05:11:07;1.70;99.90
54684;DHT22;40582;53.100;6.686;2023-03-03T05:13:33;1.60;99.90
54684;DHT22;40582;53.100;6.686;2023-03-03T05:15:59;1.60;99.90
54684;DHT22;40582;53.100;6.686;2023-03-03T05:18:26;1.90;99.90
54684;DHT22;40582;53.100;6.686;2023-03-03T05:20:52;2.20;99.90
54684;DHT22;40582;53.100;6.686;2023-03-03T05:23:18;2.00;99.90
54684;DHT22;40582;53.100;6.686;2023-03-03T05:25:46;2.60;99.90
54684;DHT22;40582;53.100;6.686;2023-03-03T05:28:12;1.50;99.90
54684;DHT22;40582;53.100;6.686;2023-03-03T05:30:38;1.40;99.90
54684;DHT22;40582;53.100;6.686;2023-03-03T05:33:04;1.40;99.90
54684;DHT22;40582;53.100;6.686;2023-03-03T05:35:31;1.30;99.90
54684;DHT22;40582;53.100;6.686;2023-03-03T05:37:57;1.40;99.90
54684;DHT22;40582;53.100;6.686;2023-03-03T05:40:24;1.30;99.90
54684;DHT22;40582;53.100;6.686;2023-03-03T05:42:50;1.50;99.90
54684;DHT22;40582;53.100;6.686;2023-03-03T05:45:16;1.20;99.90
54684;DHT22;40582;53.100;6.686;2023-03-03T05:47:45;1.20;99.90
54684;DHT22;40582;53.100;6.686;2023-03-03T05:50:11;1.10;99.90
54684;DHT22;40582;53.100;6.686;2023-03-03T05:52:37;1.40;99.90
54684;DHT22;40582;53.100;6.686;2023-03-03T05:55:03;1.20;99.90
54684;DHT22;40582;53.100;6.686;2023-03-03T05:57:29;1.10;99.90
54684;DHT22;40582;53.100;6.686;2023-03-03T05:59:54;1.20;99.90
54684;DHT22;40582;53.100;6.686;2023-03-03T06:02:20;1.20;99.90
54684;DHT22;40582;53.100;6.686;2023-03-03T06:04:46;1.10;99.90
54684;DHT22;40582;53.100;6.686;2023-03-03T06:07:12;1.10;99.90
54684;DHT22;40582;53.100;6.686;2023-03-03T06:09:37;1.20;99.90
54684;DHT22;40582;53.100;6.686;2023-03-03T06:12:03;1.20;99.90
54684;DHT22;40582;53.100;6.686;2023-03-03T06:14:29;1.10;99.90
54684;DHT22;40582;53.100;6.686;2023-03-03T06:16:55;1.10;99.90
54684;DHT22;40582;53.100;6.686;2023-03-03T06:19:22;1.10;99.90
54684;DHT22;40582;53.100;6.686;2023-03-03T06:21:48;1.10;99.90
54684;DHT22;40582;53.100;6.686;2023-03-03T06:24:14;1.10;99.90
54684;DHT22;40582;53.100;6.686;2023-03-03T06:26:40;1.50;99.90
54684;DHT22;40582;53.100;6.686;2023-03-03T06:29:06;1.10;99.90
54684;DHT22;40582;53.100;6.686;2023-03-03T06:31:32;1.10;99.90
54684;DHT22;40582;53.100;6.686;2023-03-03T06:33:58;1.10;99.90
54684;DHT22;40582;53.100;6.686;2023-03-03T06:36:23;1.30;99.90
54684;DHT22;40582;53.100;6.686;2023-03-03T06:38:50;1.10;99.90
54684;DHT22;40582;53.100;6.686;2023-03-03T06:41:16;1.80;99.90
54684;DHT22;40582;53.100;6.686;2023-03-03T06:43:41;1.10;99.90
54684;DHT22;40582;53.100;6.686;2023-03-03T06:46:07;1.90;99.90
54684;DHT22;40582;53.100;6.686;2023-03-03T06:48:33;1.20;99.90
54684;DHT22;40582;53.100;6.686;2023-03-03T06:51:01;1.20;99.90
54684;DHT22;40582;53.100;6.686;2023-03-03T06:53:27;1.20;99.90
54684;DHT22;40582;53.100;6.686;2023-03-03T06:55:57;1.20;99.90
54684;DHT22;40582;53.100;6.686;2023-03-03T06:58:23;1.20;99.90
54684;DHT22;40582;53.100;6.686;2023-03-03T07:00:59;1.20;99.90
54684;DHT22;40582;53.100;6.686;2023-03-03T07:05:56;1.70;99.90
54684;DHT22;40582;53.100;6.686;2023-03-03T07:08:23;1.40;99.90
54684;DHT22;40582;53.100;6.686;2023-03-03T07:10:50;1.50;99.90
54684;DHT22;40582;53.100;6.686;2023-03-03T07:13:23;2.10;99.90
54684;DHT22;40582;53.100;6.686;2023-03-03T07:15:51;1.70;99.90
54684;DHT22;40582;53.100;6.686;2023-03-03T07:23:46;2.20;99.90
54684;DHT22;40582;53.100;6.686;2023-03-03T07:26:15;2.10;99.90
54684;DHT22;40582;53.100;6.686;2023-03-03T07:28:43;2.30;99.90
54684;DHT22;40582;53.100;6.686;2023-03-03T07:31:40;2.00;99.90
54684;DHT22;40582;53.100;6.686;2023-03-03T07:34:37;1.90;99.90
54684;DHT22;40582;53.100;6.686;2023-03-03T07:37:05;1.80;99.90
54684;DHT22;40582;53.100;6.686;2023-03-03T07:39:36;1.80;99.90
54684;DHT22;40582;53.100;6.686;2023-03-03T07:44:35;1.80;99.90
54684;DHT22;40582;53.100;6.686;2023-03-03T07:47:23;1.80;99.90
54684;DHT22;40582;53.100;6.686;2023-03-03T07:49:51;1.90;99.90
54684;DHT22;40582;53.100;6.686;2023-03-03T07:53:01;2.50;99.90
54684;DHT22;40582;53.100;6.686;2023-03-03T07:55:36;1.90;99.90
54684;DHT22;40582;53.100;6.686;2023-03-03T07:58:18;2.00;99.90
54684;DHT22;40582;53.100;6.686;2023-03-03T08:03:49;2.20;99.90
54684;DHT22;40582;53.100;6.686;2023-03-03T08:14:14;3.50;99.90
54684;DHT22;40582;53.100;6.686;2023-03-03T08:16:41;3.40;99.90
54684;DHT22;40582;53.100;6.686;2023-03-03T08:19:08;3.90;99.90
54684;DHT22;40582;53.100;6.686;2023-03-03T08:21:36;4.40;99.90
54684;DHT22;40582;53.100;6.686;2023-03-03T08:24:01;4.90;99.90
54684;DHT22;40582;53.100;6.686;2023-03-03T08:26:27;5.20;99.90
54684;DHT22;40582;53.100;6.686;2023-03-03T08:28:53;5.30;99.90
54684;DHT22;40582;53.100;6.686;2023-03-03T08:31:20;5.20;99.90
54684;DHT22;40582;53.100;6.686;2023-03-03T08:33:46;5.10;99.90
54684;DHT22;40582;53.100;6.686;2023-03-03T08:36:12;4.90;99.90
54684;DHT22;40582;53.100;6.686;2023-03-03T08:38:39;4.80;99.90
54684;DHT22;40582;53.100;6.686;2023-03-03T08:41:05;4.60;99.90
54684;DHT22;40582;53.100;6.686;2023-03-03T08:43:31;4.50;99.90
54684;DHT22;40582;53.100;6.686;2023-03-03T08:45:59;4.20;99.90
54684;DHT22;40582;53.100;6.686;2023-03-03T08:48:26;4.30;99.90
54684;DHT22;40582;53.100;6.686;2023-03-03T08:50:53;4.60;99.90
54684;DHT22;40582;53.100;6.686;2023-03-03T08:53:21;4.20;99.90
54684;DHT22;40582;53.100;6.686;2023-03-03T08:55:47;4.10;99.90
54684;DHT22;40582;53.100;6.686;2023-03-03T08:58:14;4.10;99.90
54684;DHT22;40582;53.100;6.686;2023-03-03T09:00:40;4.10;99.90
54684;DHT22;40582;53.100;6.686;2023-03-03T09:03:07;4.00;99.90
54684;DHT22;40582;53.100;6.686;2023-03-03T09:05:34;4.20;99.90
54684;DHT22;40582;53.100;6.686;2023-03-03T09:08:00;4.00;99.90
54684;DHT22;40582;53.100;6.686;2023-03-03T09:10:27;4.00;99.90
54684;DHT22;40582;53.100;6.686;2023-03-03T09:12:59;4.00;99.90
54684;DHT22;40582;53.100;6.686;2023-03-03T09:15:30;4.00;99.90
54684;DHT22;40582;53.100;6.686;2023-03-03T09:18:16;4.00;99.90
54684;DHT22;40582;53.100;6.686;2023-03-03T09:20:48;3.90;99.90
54684;DHT22;40582;53.100;6.686;2023-03-03T09:23:28;3.90;99.90
54684;DHT22;40582;53.100;6.686;2023-03-03T09:25:57;3.90;99.90
54684;DHT22;40582;53.100;6.686;2023-03-03T09:28:27;3.90;99.90
54684;DHT22;40582;53.100;6.686;2023-03-03T09:30:57;3.90;99.90
54684;DHT22;40582;53.100;6.686;2023-03-03T09:33:37;3.80;99.90
54684;DHT22;40582;53.100;6.686;2023-03-03T09:36:22;3.90;99.90
54684;DHT22;40582;53.100;6.686;2023-03-03T09:38:48;3.90;99.90
54684;DHT22;40582;53.100;6.686;2023-03-03T09:44:02;4.00;99.90
54684;DHT22;40582;53.100;6.686;2023-03-03T09:49:34;4.20;99.90
54684;DHT22;40582;53.100;6.686;2023-03-03T09:52:21;4.20;99.90
54684;DHT22;40582;53.100;6.686;2023-03-03T10:11:07;5.50;99.90
54684;DHT22;40582;53.100;6.686;2023-03-03T10:17:00;5.80;99.90
54684;DHT22;40582;53.100;6.686;2023-03-03T10:19:38;5.90;99.90
54684;DHT22;40582;53.100;6.686;2023-03-03T10:51:00;7.30;99.90
54684;DHT22;40582;53.100;6.686;2023-03-03T10:59:52;7.70;99.90
54684;DHT22;40582;53.100;6.686;2023-03-03T11:02:31;7.80;99.90
54684;DHT22;40582;53.100;6.686;2023-03-03T11:07:43;7.90;99.90
54684;DHT22;40582;53.100;6.686;2023-03-03T11:15:44;8.20;99.90
54684;DHT22;40582;53.100;6.686;2023-03-03T11:23:23;8.20;99.90
54684;DHT22;40582;53.100;6.686;2023-03-03T11:32:20;8.50;99.90
54684;DHT22;40582;53.100;6.686;2023-03-03T11:34:57;8.50;99.90
54684;DHT22;40582;53.100;6.686;2023-03-03T11:37:39;8.50;99.90
54684;DHT22;40582;53.100;6.686;2023-03-03T11:40:18;8.50;99.90
54684;DHT22;40582;53.100;6.686;2023-03-03T11:45:17;9.20;99.90
54684;DHT22;40582;53.100;6.686;2023-03-03T11:51:06;9.30;99.90
54684;DHT22;40582;53.100;6.686;2023-03-03T11:54:14;9.30;99.90
54684;DHT22;40582;53.100;6.686;2023-03-03T11:56:43;9.30;99.90
54684;DHT22;40582;53.100;6.686;2023-03-03T12:01:56;9.30;99.90
54684;DHT22;40582;53.100;6.686;2023-03-03T12:07:57;9.00;99.90
54684;DHT22;40582;53.100;6.686;2023-03-03T12:13:09;8.90;99.90
54684;DHT22;40582;53.100;6.686;2023-03-03T12:21:17;9.00;99.90
54684;DHT22;40582;53.100;6.686;2023-03-03T12:27:00;9.10;99.90
54684;DHT22;40582;53.100;6.686;2023-03-03T12:29:43;9.10;99.90
54684;DHT22;40582;53.100;6.686;2023-03-03T12:35:00;9.00;99.90
54684;DHT22;40582;53.100;6.686;2023-03-03T12:40:19;9.10;99.90
54684;DHT22;40582;53.100;6.686;2023-03-03T12:46:20;9.00;99.90
54684;DHT22;40582;53.100;6.686;2023-03-03T12:48:48;9.00;99.90
54684;DHT22;40582;53.100;6.686;2023-03-03T12:59:51;9.10;99.90
54684;DHT22;40582;53.100;6.686;2023-03-03T13:10:44;9.30;99.90
54684;DHT22;40582;53.100;6.686;2023-03-03T13:15:57;9.30;99.90
54684;DHT22;40582;53.100;6.686;2023-03-03T13:18:33;9.40;99.90
54684;DHT22;40582;53.100;6.686;2023-03-03T13:21:10;9.50;99.90
54684;DHT22;40582;53.100;6.686;2023-03-03T13:23:57;9.80;99.90
54684;DHT22;40582;53.100;6.686;2023-03-03T13:26:30;10.00;99.90
54684;DHT22;40582;53.100;6.686;2023-03-03T13:29:02;10.00;99.90
54684;DHT22;40582;53.100;6.686;2023-03-03T13:31:33;9.90;99.90
54684;DHT22;40582;53.100;6.686;2023-03-03T13:34:00;10.00;99.90
54684;DHT22;40582;53.100;6.686;2023-03-03T13:36:37;9.90;99.90
54684;DHT22;40582;53.100;6.686;2023-03-03T13:39:26;9.80;99.90
54684;DHT22;40582;53.100;6.686;2023-03-03T13:42:05;9.80;99.90
54684;DHT22;40582;53.100;6.686;2023-03-03T13:44:41;9.70;99.90
54684;DHT22;40582;53.100;6.686;2023-03-03T13:55:47;9.10;99.90
54684;DHT22;40582;53.100;6.686;2023-03-03T14:05:56;9.20;99.90
54684;DHT22;40582;53.100;6.686;2023-03-03T14:11:32;9.30;99.90
54684;DHT22;40582;53.100;6.686;2023-03-03T14:14:39;9.30;99.90
54684;DHT22;40582;53.100;6.686;2023-03-03T14:17:16;9.30;99.90
54684;DHT22;40582;53.100;6.686;2023-03-03T14:19:56;9.30;99.90
54684;DHT22;40582;53.100;6.686;2023-03-03T14:22:44;9.30;99.90
54684;DHT22;40582;53.100;6.686;2023-03-03T14:25:11;9.20;99.90
54684;DHT22;40582;53.100;6.686;2023-03-03T14:28:20;9.10;99.90
54684;DHT22;40582;53.100;6.686;2023-03-03T14:30:27;9.00;99.90
54684;DHT22;40582;53.100;6.686;2023-03-03T14:35:35;8.90;99.90
54684;DHT22;40582;53.100;6.686;2023-03-03T14:40:33;8.80;99.90
54684;DHT22;40582;53.100;6.686;2023-03-03T14:43:00;8.80;99.90
54684;DHT22;40582;53.100;6.686;2023-03-03T14:47:55;8.70;99.90
54684;DHT22;40582;53.100;6.686;2023-03-03T14:50:33;8.60;99.90
54684;DHT22;40582;53.100;6.686;2023-03-03T14:53:05;8.60;99.90
54684;DHT22;40582;53.100;6.686;2023-03-03T14:55:32;8.50;99.90
54684;DHT22;40582;53.100;6.686;2023-03-03T14:57:59;8.50;99.90
54684;DHT22;40582;53.100;6.686;2023-03-03T15:00:30;8.40;99.90
54684;DHT22;40582;53.100;6.686;2023-03-03T15:02:58;8.30;99.90
54684;DHT22;40582;53.100;6.686;2023-03-03T15:05:26;8.20;99.90
54684;DHT22;40582;53.100;6.686;2023-03-03T15:08:13;8.20;99.90
54684;DHT22;40582;53.100;6.686;2023-03-03T15:10:42;8.10;99.90
54684;DHT22;40582;53.100;6.686;2023-03-03T15:16:31;8.10;99.90
54684;DHT22;40582;53.100;6.686;2023-03-03T15:18:32;8.00;99.90
54684;DHT22;40582;53.100;6.686;2023-03-03T15:26:08;8.00;99.90
54684;DHT22;40582;53.100;6.686;2023-03-03T15:33:34;7.90;99.90
54684;DHT22;40582;53.100;6.686;2023-03-03T15:38:33;7.80;99.90
54684;DHT22;40582;53.100;6.686;2023-03-03T15:41:07;7.70;99.90
54684;DHT22;40582;53.100;6.686;2023-03-03T15:43:42;7.70;99.90
54684;DHT22;40582;53.100;6.686;2023-03-03T15:52:07;7.60;99.90
54684;DHT22;40582;53.100;6.686;2023-03-03T15:55:29;7.50;99.90
54684;DHT22;40582;53.100;6.686;2023-03-03T16:00:22;7.50;99.90
54684;DHT22;40582;53.100;6.686;2023-03-03T16:02:59;7.50;99.90
54684;DHT22;40582;53.100;6.686;2023-03-03T16:05:33;7.40;99.90
54684;DHT22;40582;53.100;6.686;2023-03-03T16:08:15;7.40;99.90
54684;DHT22;40582;53.100;6.686;2023-03-03T16:10:56;7.40;99.90
54684;DHT22;40582;53.100;6.686;2023-03-03T16:29:15;7.10;99.90
54684;DHT22;40582;53.100;6.686;2023-03-03T16:31:44;7.00;99.90
54684;DHT22;40582;53.100;6.686;2023-03-03T16:41:46;6.90;99.90
54684;DHT22;40582;53.100;6.686;2023-03-03T16:46:42;6.90;99.90
54684;DHT22;40582;53.100;6.686;2023-03-03T16:49:19;6.80;99.90
54684;DHT22;40582;53.100;6.686;2023-03-03T17:14:58;6.60;99.90
54684;DHT22;40582;53.100;6.686;2023-03-03T17:27:27;6.40;99.90
54684;DHT22;40582;53.100;6.686;2023-03-03T17:30:15;6.40;99.90
54684;DHT22;40582;53.100;6.686;2023-03-03T17:35:13;6.40;99.90
54684;DHT22;40582;53.100;6.686;2023-03-03T17:40:16;6.30;99.90
54684;DHT22;40582;53.100;6.686;2023-03-03T17:45:16;6.30;99.90
54684;DHT22;40582;53.100;6.686;2023-03-03T17:53:06;6.30;99.90
54684;DHT22;40582;53.100;6.686;2023-03-03T17:58:05;6.30;99.90
54684;DHT22;40582;53.100;6.686;2023-03-03T18:05:53;6.30;99.90
54684;DHT22;40582;53.100;6.686;2023-03-03T18:13:46;6.20;99.90
54684;DHT22;40582;53.100;6.686;2023-03-03T18:21:29;6.20;99.90
54684;DHT22;40582;53.100;6.686;2023-03-03T18:24:25;6.20;99.90
54684;DHT22;40582;53.100;6.686;2023-03-03T18:26:52;6.20;99.90
54684;DHT22;40582;53.100;6.686;2023-03-03T18:29:24;6.20;99.90
54684;DHT22;40582;53.100;6.686;2023-03-03T18:37:33;6.10;99.90
54684;DHT22;40582;53.100;6.686;2023-03-03T18:39:46;6.10;99.90
54684;DHT22;40582;53.100;6.686;2023-03-03T18:44:41;6.10;99.90
54684;DHT22;40582;53.100;6.686;2023-03-03T18:47:07;6.00;99.90
54684;DHT22;40582;53.100;6.686;2023-03-03T18:52:27;5.90;99.90
54684;DHT22;40582;53.100;6.686;2023-03-03T18:57:34;6.00;99.90
54684;DHT22;40582;53.100;6.686;2023-03-03T19:00:11;6.00;99.90
54684;DHT22;40582;53.100;6.686;2023-03-03T19:02:39;6.00;99.90
54684;DHT22;40582;53.100;6.686;2023-03-03T19:10:04;6.00;99.90
54684;DHT22;40582;53.100;6.686;2023-03-03T19:15:40;6.00;99.90
54684;DHT22;40582;53.100;6.686;2023-03-03T19:17:52;5.90;99.90
54684;DHT22;40582;53.100;6.686;2023-03-03T19:20:20;6.00;99.90
54684;DHT22;40582;53.100;6.686;2023-03-03T19:22:48;6.00;99.90
54684;DHT22;40582;53.100;6.686;2023-03-03T19:32:54;5.90;99.90
54684;DHT22;40582;53.100;6.686;2023-03-03T19:38:10;5.90;99.90
54684;DHT22;40582;53.100;6.686;2023-03-03T19:40:44;5.90;99.90
54684;DHT22;40582;53.100;6.686;2023-03-03T19:43:27;5.90;99.90
54684;DHT22;40582;53.100;6.686;2023-03-03T20:01:20;5.90;99.90
54684;DHT22;40582;53.100;6.686;2023-03-03T20:04:08;5.80;99.90
54684;DHT22;40582;53.100;6.686;2023-03-03T20:07:00;5.80;99.90
54684;DHT22;40582;53.100;6.686;2023-03-03T20:14:30;5.80;99.90
54684;DHT22;40582;53.100;6.686;2023-03-03T20:40:15;5.80;99.90
54684;DHT22;40582;53.100;6.686;2023-03-03T20:50:29;5.80;99.90
54684;DHT22;40582;53.100;6.686;2023-03-03T20:53:11;5.80;99.90
54684;DHT22;40582;53.100;6.686;2023-03-03T20:55:58;5.80;99.90
54684;DHT22;40582;53.100;6.686;2023-03-03T21:01:13;5.90;99.90
54684;DHT22;40582;53.100;6.686;2023-03-03T21:03:41;5.90;99.90
54684;DHT22;40582;53.100;6.686;2023-03-03T21:06:08;5.80;99.90
54684;DHT22;40582;53.100;6.686;2023-03-03T21:11:04;5.80;99.90
54684;DHT22;40582;53.100;6.686;2023-03-03T21:13:39;5.80;99.90
54684;DHT22;40582;53.100;6.686;2023-03-03T21:16:10;5.90;99.90
54684;DHT22;40582;53.100;6.686;2023-03-03T21:18:36;5.90;99.90
54684;DHT22;40582;53.100;6.686;2023-03-03T21:21:02;5.80;99.90
54684;DHT22;40582;53.100;6.686;2023-03-03T21:23:27;5.90;99.90
54684;DHT22;40582;53.100;6.686;2023-03-03T21:25:54;5.80;99.90
54684;DHT22;40582;53.100;6.686;2023-03-03T21:28:26;5.80;99.90
54684;DHT22;40582;53.100;6.686;2023-03-03T21:31:12;5.80;99.90
54684;DHT22;40582;53.100;6.686;2023-03-03T21:36:03;5.90;99.90
54684;DHT22;40582;53.100;6.686;2023-03-03T21:38:31;5.80;99.90
54684;DHT22;40582;53.100;6.686;2023-03-03T21:40:58;5.80;99.90
54684;DHT22;40582;53.100;6.686;2023-03-03T21:43:39;6.00;99.90
54684;DHT22;40582;53.100;6.686;2023-03-03T21:46:05;5.80;99.90
54684;DHT22;40582;53.100;6.686;2023-03-03T21:48:31;5.80;99.90
54684;DHT22;40582;53.100;6.686;2023-03-03T21:50:57;5.80;99.90
54684;DHT22;40582;53.100;6.686;2023-03-03T21:53:22;5.80;99.90
54684;DHT22;40582;53.100;6.686;2023-03-03T21:55:48;5.80;99.90
54684;DHT22;40582;53.100;6.686;2023-03-03T21:58:14;5.90;99.90
54684;DHT22;40582;53.100;6.686;2023-03-03T22:00:40;5.80;99.90
54684;DHT22;40582;53.100;6.686;2023-03-03T22:03:08;5.80;99.90
54684;DHT22;40582;53.100;6.686;2023-03-03T22:05:33;5.90;99.90
54684;DHT22;40582;53.100;6.686;2023-03-03T22:07:59;5.80;99.90
54684;DHT22;40582;53.100;6.686;2023-03-03T22:10:24;5.80;99.90
54684;DHT22;40582;53.100;6.686;2023-03-03T22:12:50;5.80;99.90
54684;DHT22;40582;53.100;6.686;2023-03-03T22:15:16;5.80;99.90
54684;DHT22;40582;53.100;6.686;2023-03-03T22:17:41;5.80;99.90
54684;DHT22;40582;53.100;6.686;2023-03-03T22:20:08;5.80;99.90
54684;DHT22;40582;53.100;6.686;2023-03-03T22:22:34;5.80;99.90
54684;DHT22;40582;53.100;6.686;2023-03-03T22:24:59;5.80;99.90
54684;DHT22;40582;53.100;6.686;2023-03-03T22:27:25;5.80;99.90
54684;DHT22;40582;53.100;6.686;2023-03-03T22:29:51;5.80;99.90
54684;DHT22;40582;53.100;6.686;2023-03-03T22:32:16;5.80;99.90
54684;DHT22;40582;53.100;6.686;2023-03-03T22:34:42;5.80;99.90
54684;DHT22;40582;53.100;6.686;2023-03-03T22:37:08;5.80;99.90
54684;DHT22;40582;53.100;6.686;2023-03-03T22:39:33;5.80;99.90
54684;DHT22;40582;53.100;6.686;2023-03-03T22:41:59;5.80;99.90